Terminal Aerodrome Forecast
Issued by NWS Jackson, MS

Home | Current Version | Previous Version | Text Only | Print | Product List | Glossary On
Versions: 1 2 3 4 5 6 7 8 9 10 11 12 13 14
355
FTUS44 KJAN 281737 AAB
TAFJAN
TAF AMD
KJAN 281737Z 2818/2918 16014G20KT P6SM VCTS SCT050CB BKN250
     FM290100 16003KT P6SM FEW050 BKN250
     FM291000 VRB03KT 5SM BR FEW009
     FM291400 18006KT P6SM SCT250=

USA.gov is the U.S. government's official web portal to all federal, state and local government web resources and services.